Date,TemperatureHighF,TemperatureAvgF,TemperatureLowF,DewpointHighF,DewpointAvgF,DewpointLowF,HumidityHigh,HumidityAvg,HumidityLow,PressureMaxIn,PressureMinIn,WindSpeedMaxMPH,WindSpeedAvgMPH,GustSpeedMaxMPH,PrecipitationSumIn
2013-1-1,81,74,65,64,60,57,81,62,51,30.14,29.98,14,3,21,0.00
2013-1-2,87,73,61,68,63,58,90,74,44,30.03,29.92,9,1,13,0.00
2013-1-3,86,74,67,70,67,64,91,78,55,30.07,29.96,8,2,14,0.00
2013-1-4,85,73,65,73,68,62,93,84,62,30.16,30.03,7,2,12,0.00
2013-1-5,79,71,66,72,67,63,94,87,72,30.19,30.09,8,2,12,0.08
2013-1-6,84,74,65,73,69,62,93,83,66,30.13,29.99,11,2,17,0.06
2013-1-7,82,72,68,72,68,65,93,87,59,30.10,30.00,8,2,12,0.08
2013-1-8,86,78,71,74,71,67,91,81,65,30.14,30.00,10,3,16,0.09
2013-1-9,85,79,75,73,71,68,88,76,65,30.22,30.09,11,4,21,0.00
2013-1-10,82,76,74,70,67,66,79,73,59,30.24,30.18,10,4,17,0.00
2013-1-11,84,78,74,70,68,66,85,72,60,30.19,30.09,10,4,17,0.00
2013-1-12,83,76,71,70,67,64,84,74,59,30.12,30.02,9,2,15,0.02
2013-1-13,85,77,72,68,66,64,81,68,51,30.07,30.01,9,3,16,0.00
2013-1-16,84,79,70,70,69,67,91,72,61,30.04,29.94,8,3,15,0.24
2013-1-17,80,71,61,72,66,54,92,83,71,30.03,29.91,17,3,28,0.05
2013-1-18,73,63,53,61,53,46,80,69,57,30.18,30.03,12,6,17,0.00
2013-1-19,72,69,64,69,63,57,94,83,62,30.16,30.02,10,2,15,0.21
2013-1-20,85,72,64,72,66,62,95,84,58,30.09,29.94,8,2,11,0.06
2013-1-21,83,73,66,75,68,63,93,84,66,30.01,29.89,11,2,16,0.02
2013-1-22,79,69,63,65,59,52,92,71,52,30.15,29.94,15,6,22,0.00
2013-1-23,78,69,61,58,54,51,80,60,43,30.24,30.13,11,4,19,0.00
2013-1-24,79,67,59,56,53,47,84,63,40,30.24,30.12,9,3,17,0.00
2013-1-25,80,67,57,60,55,50,83,66,43,30.24,30.11,9,2,14,0.00
2013-1-26,82,68,59,61,58,52,90,70,45,30.20,30.09,9,2,14,0.00
2013-1-27,80,71,62,64,61,58,88,71,51,30.22,30.14,11,3,19,0.00
2013-1-28,83,76,72,66,64,61,75,65,53,30.26,30.15,9,4,18,0.00
2013-1-29,82,76,72,70,67,64,82,74,65,30.17,30.05,11,3,19,0.00
2013-1-30,82,76,72,69,66,63,85,72,58,30.06,29.90,14,5,24,0.00
2013-1-31,74,68,60,71,59,40,92,75,45,30.12,29.88,12,4,21,0.00
2013-2-1,75,63,53,55,48,38,70,58,46,30.21,30.10,15,6,24,0.00
2013-2-2,77,65,57,54,48,37,83,57,39,30.21,30.06,9,2,14,0.00
2013-2-3,76,64,53,55,49,39,89,62,27,30.11,30.00,11,3,16,0.00
2013-2-4,78,64,52,55,48,39,82,59,30,30.09,29.96,8,2,14,0.00
2013-2-5,82,68,53,64,58,50,91,73,48,30.03,29.93,8,2,14,0.00
2013-2-6,83,71,60,68,62,57,92,74,54,30.04,29.96,6,2,12,0.00
2013-2-7,84,76,69,67,64,62,82,68,51,30.01,29.87,8,2,14,0.00
2013-2-8,88,76,69,71,68,65,91,77,52,29.97,29.84,11,3,17,0.00
2013-2-9,83,72,63,68,63,58,93,75,55,30.11,29.94,12,4,19,0.00
2013-2-10,78,72,68,65,61,56,85,69,60,30.20,30.09,13,4,24,0.09
2013-2-11,81,75,70,67,64,60,78,69,59,30.16,30.04,8,4,17,0.00
2013-2-12,87,76,67,70,67,63,89,75,55,30.05,29.90,11,3,17,0.00
2013-2-13,86,77,68,74,70,64,91,79,63,29.94,29.82,13,4,21,0.00
2013-2-14,83,73,64,74,68,61,93,85,68,29.94,29.78,17,4,26,0.38
2013-2-15,75,67,64,68,65,61,95,91,79,29.95,29.88,8,2,13,0.39
2013-2-16,76,66,56,64,57,45,94,74,41,30.02,29.81,14,5,26,0.01
2013-2-17,61,53,45,45,28,14,70,41,19,30.25,30.01,17,7,26,0.00
2013-2-18,73,61,48,56,45,33,65,56,42,30.27,30.14,98,5,98,0.00
2013-2-19,80,73,65,67,61,54,87,67,56,30.14,30.01,11,4,18,0.00
2013-2-20,82,72,65,68,64,58,93,77,48,30.05,29.94,9,2,14,0.00
2013-2-21,86,75,66,69,66,62,90,73,52,30.03,29.93,8,2,35,0.00
2013-2-22,84,77,72,72,70,66,86,78,65,30.03,29.95,11,4,18,0.00
2013-2-23,86,78,74,73,71,68,88,78,63,29.99,29.85,11,5,21,0.00
2013-2-24,89,79,72,75,71,67,93,78,54,29.93,29.83,8,2,18,0.00
2013-2-25,87,77,68,74,70,64,90,80,62,29.85,29.74,11,3,24,0.00
2013-2-26,86,80,76,73,71,68,87,75,57,29.83,29.73,15,6,27,0.00
2013-2-27,79,72,66,73,66,62,92,82,59,29.90,29.79,10,3,15,0.08
2013-2-28,72,64,61,64,55,47,92,74,43,29.95,29.84,12,3,18,0.00
2013-3-1,66,62,59,57,51,46,84,67,55,29.93,29.84,10,4,15,0.00
2013-3-2,67,59,53,48,42,35,69,54,39,29.98,29.89,17,6,25,0.00
2013-3-3,63,55,50,46,42,39,81,63,44,30.09,29.90,14,5,21,0.01
2013-3-4,70,55,44,44,37,33,72,52,29,30.16,30.06,14,4,23,0.00
2013-3-5,79,65,49,58,52,43,88,66,45,30.13,30.02,8,2,14,0.00
2013-3-6,80,67,53,65,51,23,89,60,21,30.05,29.88,15,6,26,0.00
2013-3-7,75,60,48,55,44,35,83,56,32,30.13,30.01,11,4,19,0.00
2013-3-8,58,55,55,53,51,51,88,87,82,30.10,30.07,4,2,6,0.00
2013-3-9,55,55,55,51,51,51,87,87,87,30.07,30.07,2,2,4,0.00
2013-3-10,55,55,55,51,51,51,87,87,87,30.07,30.07,2,2,4,0.00
2013-3-11,55,55,55,51,51,51,87,87,87,30.07,30.07,2,2,4,0.00
2013-3-12,55,55,55,51,51,51,87,87,87,30.07,30.07,2,2,4,0.00
2013-3-13,55,55,55,51,51,51,87,87,87,30.07,30.07,2,2,4,0.00
2013-3-14,55,55,55,51,51,51,87,87,87,30.07,30.07,2,2,4,0.00
2013-3-16,69,67,64,55,54,52,67,63,59,30.05,29.91,12,2,16,1.07
2013-3-17,81,69,58,62,58,52,86,67,48,29.95,29.81,11,2,18,0.00
2013-3-18,83,73,66,71,65,59,90,76,60,29.87,29.75,12,3,21,0.04
2013-3-19,83,74,68,70,68,64,93,81,58,29.81,29.59,14,2,24,0.01
2013-3-20,87,74,65,73,65,58,93,75,51,29.78,29.59,14,2,26,0.00
2013-3-21,79,69,59,62,53,35,90,61,22,29.74,29.62,11,4,17,0.00
2013-3-22,79,69,56,70,59,50,89,73,53,29.81,29.70,9,2,17,0.00
2013-3-23,89,79,72,75,72,69,92,78,52,29.78,29.59,11,3,21,0.02
2013-3-24,91,81,75,74,72,68,92,74,51,29.68,29.47,19,6,32,0.00
2013-3-25,81,75,66,74,60,41,91,63,32,29.79,29.53,14,5,21,0.04
2013-3-26,69,62,52,44,37,25,59,41,22,30.01,29.77,15,8,26,0.00
2013-3-27,71,58,47,47,41,34,71,54,31,30.05,29.96,14,5,20,0.00
2013-3-28,76,63,52,51,44,34,72,51,29,30.07,29.96,12,4,16,0.00
2013-3-29,78,67,58,53,49,41,64,53,36,30.09,29.99,13,4,20,0.00
2013-3-30,80,69,56,56,52,47,81,55,35,30.07,29.95,11,2,18,0.00
2013-3-31,83,74,66,66,62,54,82,66,50,29.99,29.84,12,3,20,0.00
2013-4-1,90,78,71,71,67,61,87,71,42,29.85,29.73,12,4,21,0.06
2013-4-2,87,75,67,68,66,63,93,73,50,29.87,29.78,8,3,14,0.00
2013-4-3,87,78,70,70,68,64,86,73,56,29.86,29.78,11,3,17,0.00
2013-4-4,87,76,68,74,70,65,94,81,63,29.84,29.69,19,4,32,1.77
2013-4-5,74,69,66,71,66,60,94,89,79,29.78,29.61,12,3,19,0.83
2013-4-6,82,70,60,67,61,57,93,75,56,29.88,29.71,13,6,20,0.00
2013-4-7,84,74,71,65,63,60,78,68,51,29.93,29.81,14,4,19,0.00
2013-4-8,86,75,61,69,62,58,91,65,40,29.93,29.84,10,2,17,0.00
2013-4-9,86,77,72,70,66,64,79,69,57,29.94,29.83,11,3,19,0.00
2013-4-10,88,79,73,73,70,66,83,74,59,29.90,29.78,11,3,18,0.00
2013-4-11,86,80,76,74,72,70,86,77,64,29.81,29.68,12,5,21,0.00
2013-4-12,89,81,77,78,74,72,91,80,65,29.74,29.64,13,5,23,0.40
2013-4-13,87,79,74,75,73,70,90,81,63,29.76,29.66,9,3,15,0.01
2013-4-14,89,81,72,76,74,70,92,79,61,29.76,29.67,12,3,21,0.00
2013-4-15,95,80,71,78,73,68,93,80,54,29.85,29.71,17,3,26,0.28
2013-4-16,89,80,71,77,73,68,94,80,59,29.91,29.81,12,3,20,0.00
2013-4-17,87,80,75,72,70,68,85,72,57,29.91,29.81,11,4,17,0.00
2013-4-18,89,82,75,75,71,69,83,71,58,29.85,29.77,11,3,21,0.00
2013-4-19,90,83,78,75,73,70,88,73,55,29.84,29.75,12,5,24,0.01
2013-4-20,95,79,71,78,74,69,95,83,57,29.87,29.73,23,2,30,1.61
2013-4-21,90,79,72,75,72,68,94,81,54,29.88,29.76,11,3,19,0.12
2013-4-22,90,76,70,73,70,67,95,84,58,29.84,29.71,14,2,21,0.87
2013-4-23,85,76,68,71,66,61,94,73,54,29.88,29.73,17,6,26,0.01
2013-4-24,88,79,70,67,64,60,72,60,48,29.93,29.82,11,4,15,0.00
2013-4-25,88,78,71,64,62,60,71,59,44,29.99,29.86,11,3,17,0.00
2013-4-26,86,77,68,68,64,60,78,64,52,30.01,29.90,12,4,20,0.00
2013-4-27,86,78,72,68,64,60,80,63,48,30.00,29.87,11,5,19,0.00
2013-4-28,87,79,73,66,64,61,75,61,48,29.91,29.78,10,4,17,0.00
2013-4-29,88,79,75,74,68,63,82,70,55,29.83,29.73,10,3,18,0.00
2013-4-30,86,76,68,75,70,66,94,82,62,29.79,29.71,17,2,29,1.54
2013-5-1,92,76,69,78,71,67,93,83,59,29.78,29.70,7,1,12,0.34
2013-5-2,81,73,67,74,70,66,96,90,77,29.73,29.57,14,4,27,3.41
2013-5-3,91,76,68,72,69,66,95,82,47,29.60,29.47,15,3,22,0.52
2013-5-4,90,78,69,71,68,65,94,72,46,29.59,29.47,10,4,17,0.01
2013-5-5,85,75,66,67,62,52,91,67,36,29.72,29.55,12,4,21,0.00
2013-5-6,88,75,61,65,60,56,88,63,40,29.81,29.71,8,2,13,0.00
2013-5-7,87,75,65,67,62,57,86,65,37,29.86,29.76,11,3,17,0.00
2013-5-8,90,77,64,68,61,51,87,62,29,29.93,29.84,9,2,16,0.00
2013-5-9,92,80,67,74,68,58,82,67,48,29.93,29.85,8,2,16,0.00
2013-5-10,93,83,72,76,72,68,90,73,47,29.93,29.81,10,2,17,0.04
2013-5-11,92,80,72,76,73,68,92,79,56,29.86,29.77,12,3,22,0.12
2013-5-12,93,79,70,76,72,68,95,80,55,29.86,29.74,17,2,24,1.03
2013-5-13,91,80,72,74,71,65,94,74,52,29.88,29.78,11,3,16,0.01
2013-5-14,86,78,73,68,61,56,73,57,43,29.96,29.85,14,5,21,0.00
2013-5-15,86,78,69,65,60,57,70,56,39,29.98,29.88,14,4,19,0.00
2013-5-16,87,78,68,65,62,57,73,58,43,29.91,29.83,8,2,17,0.00
2013-5-17,92,81,70,74,70,64,87,70,48,29.87,29.80,9,2,15,0.00
2013-5-18,92,81,73,78,72,70,95,76,59,29.90,29.81,13,2,18,0.72
2013-5-19,92,82,74,72,70,67,84,69,49,29.89,29.78,9,2,14,0.00
2013-5-20,84,77,70,75,72,68,96,86,73,29.87,29.75,16,2,30,2.16
2013-5-21,89,79,72,75,72,69,95,79,57,29.83,29.71,11,2,17,0.04
2013-5-22,92,79,72,77,73,68,92,83,57,29.75,29.67,13,2,21,0.18
2013-5-23,97,84,75,77,74,67,93,73,39,29.79,29.70,9,2,15,0.00
2013-5-24,95,84,76,78,75,71,92,74,48,29.85,29.73,8,2,14,0.00
2013-5-25,88,82,76,76,69,64,84,65,50,29.95,29.83,14,6,22,0.00
2013-5-26,88,81,75,69,66,61,76,60,49,29.97,29.89,12,5,20,0.00
2013-5-27,88,81,76,75,71,64,87,71,62,29.95,29.85,12,6,21,0.01
2013-5-28,88,80,75,76,73,71,93,80,65,29.90,29.83,13,4,23,0.33
2013-5-29,83,77,71,75,72,68,95,86,75,29.88,29.80,12,4,26,1.67
2013-5-30,87,80,74,78,73,69,95,80,67,29.86,29.78,14,5,24,0.17
2013-5-31,90,81,75,78,75,72,93,81,62,29.85,29.78,12,4,20,0.17
2013-6-1,90,79,74,78,75,72,95,88,67,29.82,29.74,11,2,17,0.87
2013-6-2,94,81,72,79,74,70,94,81,55,29.80,29.71,10,1,15,0.04
2013-6-3,92,80,73,80,74,70,95,83,58,29.82,29.70,8,2,14,0.99
2013-6-4,91,80,73,80,75,70,94,84,58,29.83,29.74,8,1,14,0.31
2013-6-5,88,82,79,79,77,74,90,83,72,29.81,29.67,8,2,14,0.01
2013-6-6,90,81,76,80,76,72,93,85,70,29.70,29.57,15,5,30,0.63
2013-6-7,90,78,74,80,74,71,93,87,67,29.80,29.62,14,3,22,0.96
2013-6-8,94,83,74,81,76,72,94,82,61,29.89,29.74,10,2,17,0.01
2013-6-9,93,85,80,78,76,74,86,74,59,29.90,29.82,9,3,17,0.00
2013-6-10,95,86,80,79,77,75,87,75,59,29.88,29.79,9,3,15,0.00
2013-6-11,94,85,80,80,77,74,91,79,54,29.89,29.79,8,2,13,0.07
2013-6-12,94,83,77,80,76,74,89,81,61,29.87,29.80,6,1,9,0.00
2013-6-13,95,83,75,78,74,70,93,77,46,29.84,29.73,8,1,15,0.00
2013-6-14,96,83,76,78,74,72,92,76,50,29.77,29.66,11,2,17,0.45
2013-6-15,96,85,76,78,75,73,92,74,51,29.85,29.72,7,2,11,0.01
2013-6-16,99,86,76,80,76,72,91,73,50,29.88,29.81,8,2,14,0.00
2013-6-17,96,88,79,78,76,73,86,69,52,29.88,29.79,7,2,14,0.00
2013-6-18,96,88,80,78,76,74,86,70,51,29.86,29.77,8,2,15,0.00
2013-6-19,96,87,79,78,76,72,88,71,49,29.84,29.77,10,2,14,0.00
2013-6-20,96,84,73,78,74,70,94,74,52,29.88,29.81,11,2,18,0.60
2013-6-21,96,87,78,77,75,72,93,69,48,29.90,29.82,8,2,14,0.17
2013-6-22,95,86,79,77,75,72,83,68,51,29.89,29.82,9,3,14,0.00
2013-6-23,95,86,79,77,74,70,83,68,52,29.92,29.83,9,3,16,0.00
2013-6-24,94,86,81,77,75,72,81,69,56,29.96,29.86,10,3,20,0.01
2013-6-25,95,86,80,79,76,72,86,73,55,29.92,29.82,9,3,17,0.01
2013-6-26,95,86,76,79,76,74,94,72,51,29.87,29.79,9,2,16,0.91
2013-6-27,94,85,77,80,76,71,88,74,57,29.85,29.74,14,1,21,0.07
2013-6-28,95,84,76,81,76,72,95,78,55,29.79,29.65,7,2,15,1.39
2013-6-29,95,83,75,80,76,72,95,80,55,29.71,29.62,11,2,18,0.12
2013-6-30,92,83,78,81,76,74,90,79,61,29.74,29.64,14,4,23,0.15
2013-7-1,92,84,79,80,76,73,89,78,59,29.83,29.70,13,4,24,0.00
2013-7-2,93,85,79,80,77,73,90,77,62,29.90,29.76,10,2,18,0.00
2013-7-3,93,85,79,80,76,72,89,76,60,29.92,29.83,10,3,21,0.08
2013-7-4,94,86,75,78,76,71,94,72,58,29.95,29.85,11,3,24,0.12
2013-7-5,93,84,77,79,76,74,93,78,61,29.93,29.83,10,3,20,0.12
2013-7-6,94,86,79,79,76,73,87,73,56,29.91,29.81,12,3,24,0.13
2013-7-7,94,86,80,78,76,74,83,72,59,29.89,29.81,11,4,20,0.00
2013-7-8,95,86,80,77,74,72,82,68,52,29.93,29.86,10,2,17,0.00
2013-7-9,93,84,76,76,73,69,89,71,53,29.93,29.83,10,2,15,0.01
2013-7-10,91,82,73,78,74,71,95,80,60,29.88,29.79,7,1,12,0.15
2013-7-11,96,86,78,79,75,72,89,71,50,29.83,29.73,8,2,13,0.00
2013-7-12,94,83,76,78,74,69,91,75,53,29.77,29.68,12,1,21,0.24
2013-7-13,89,77,73,78,73,71,95,89,65,29.83,29.71,8,1,14,1.81
2013-7-14,95,81,72,78,74,71,96,81,51,29.89,29.78,10,3,17,0.92
2013-7-15,94,83,73,79,74,71,95,76,54,29.88,29.79,8,2,15,0.15
2013-7-16,88,79,74,76,73,70,92,81,60,29.95,29.84,11,3,26,0.35
2013-7-17,81,77,72,78,74,66,95,90,78,29.95,29.83,8,2,15,1.38
2013-7-18,89,78,72,81,74,70,96,90,72,29.92,29.85,12,1,25,0.65
2013-7-19,94,83,74,81,77,72,95,82,59,29.92,29.83,9,2,17,0.01
2013-7-20,92,84,78,81,77,72,90,81,67,29.91,29.82,12,2,19,0.00
2013-7-21,96,84,77,81,77,73,93,81,59,29.94,29.84,8,1,13,0.00
2013-7-22,95,87,79,79,76,74,90,73,51,29.94,29.85,11,2,17,0.00
2013-7-23,98,86,78,80,76,74,89,74,49,29.91,29.75,9,2,15,0.00
2013-7-24,97,87,79,79,75,70,89,68,44,29.82,29.69,10,3,14,0.00
2013-7-25,98,87,78,77,75,72,86,67,49,29.81,29.71,10,3,17,0.00
2013-7-26,98,85,78,79,76,74,90,76,47,29.82,29.71,11,4,17,0.14
2013-7-27,93,82,77,80,76,74,91,84,63,29.80,29.73,11,2,17,0.08
2013-7-28,91,84,78,79,77,73,92,80,67,29.87,29.75,8,2,13,0.02
2013-7-29,96,86,77,81,77,74,93,77,55,29.92,29.81,9,2,15,0.04
2013-7-30,96,87,77,81,78,74,91,76,59,29.95,29.86,10,3,16,0.11
2013-7-31,95,88,81,79,77,72,87,71,55,29.90,29.79,9,3,18,0.00
2013-8-1,96,87,81,77,75,73,81,69,53,29.84,29.73,11,3,17,0.00
2013-8-2,95,84,76,78,75,72,94,75,50,29.85,29.70,9,2,18,0.37
2013-8-3,93,80,72,80,76,69,95,86,63,29.93,29.81,17,1,30,0.54
2013-8-4,98,85,77,81,76,74,93,76,53,29.91,29.77,11,1,18,0.01
2013-8-5,96,85,79,82,77,72,89,78,59,29.83,29.73,11,2,17,0.07
2013-8-6,97,86,77,80,77,73,93,76,56,29.78,29.67,8,1,14,0.04
2013-8-7,95,86,78,80,76,73,92,74,54,29.77,29.69,10,2,16,0.00
2013-8-8,97,88,82,80,76,72,84,69,52,29.81,29.71,9,3,17,0.00
2013-8-9,93,85,80,79,75,71,83,73,60,29.85,29.73,8,2,18,0.17
2013-8-10,96,88,81,80,77,75,85,71,53,29.91,29.82,9,3,15,0.00
2013-8-11,96,88,82,80,77,73,84,71,56,29.92,29.85,10,3,16,0.00
2013-8-12,95,86,78,79,76,72,85,72,57,29.90,29.80,9,3,16,0.01
2013-8-13,97,88,81,79,76,73,85,69,48,29.83,29.74,7,2,17,0.00
2013-8-14,97,88,80,78,76,74,85,68,49,29.82,29.71,8,2,14,0.00
2013-8-15,91,83,76,80,77,72,93,82,68,29.85,29.75,8,2,16,0.17
2013-8-16,97,88,79,81,78,76,93,74,53,29.84,29.76,8,2,13,0.00
2013-8-17,96,89,82,81,79,75,86,73,59,29.87,29.78,8,2,17,0.00
2013-8-18,96,88,82,80,78,74,84,72,59,29.86,29.78,10,3,17,0.00
2013-8-19,97,88,81,81,78,75,85,73,55,29.86,29.75,8,3,17,0.02
2013-8-20,96,87,81,80,77,73,87,71,55,29.85,29.77,10,3,19,0.04
2013-8-21,95,86,79,84,78,75,91,79,60,29.86,29.78,12,3,21,0.15
2013-8-22,96,86,74,82,78,71,96,77,57,29.88,29.74,11,2,17,0.61
2013-8-23,97,87,80,82,77,74,87,73,54,29.80,29.72,8,2,15,0.00
2013-8-24,97,86,75,80,76,71,93,73,50,29.90,29.75,8,2,14,0.53
2013-8-25,91,83,78,79,76,73,93,81,61,29.94,29.81,8,2,13,0.08
2013-8-26,93,84,78,80,75,71,88,76,56,29.91,29.80,9,2,15,0.08
2013-8-27,92,82,76,78,74,71,91,77,56,29.83,29.75,10,2,14,0.00
2013-8-28,95,84,76,79,75,72,93,77,55,29.83,29.73,8,1,14,0.27
2013-8-29,96,86,76,80,76,72,92,74,53,29.81,29.71,8,2,14,0.00
2013-8-30,97,86,76,78,75,71,91,70,49,29.79,29.68,8,2,16,0.00
2013-8-31,97,82,76,81,76,73,92,81,54,29.77,29.70,8,2,12,0.20
2013-9-1,95,82,75,80,76,72,94,82,59,29.79,29.71,7,1,11,0.04
2013-9-2,95,81,74,82,76,70,93,85,56,29.82,29.73,11,1,17,0.61
2013-9-3,95,83,73,81,76,71,94,82,59,29.82,29.72,8,1,12,0.04
2013-9-4,90,83,76,82,78,74,96,84,72,29.85,29.73,11,1,17,1.23
2013-9-5,96,87,80,81,78,76,93,76,60,29.86,29.78,9,2,14,0.00
2013-9-6,97,87,80,80,78,74,90,75,49,29.83,29.70,9,2,14,0.00
2013-9-7,91,82,77,79,76,73,92,82,65,29.78,29.69,13,2,20,0.05
2013-9-8,96,82,74,78,75,71,93,80,52,29.74,29.64,8,2,12,0.01
2013-9-9,94,84,74,80,75,71,92,75,56,29.78,29.68,11,2,17,0.00
2013-9-10,94,84,77,79,76,66,91,77,56,29.83,29.74,11,3,23,0.05
2013-9-11,88,82,75,81,76,72,96,83,72,29.85,29.75,11,2,21,0.92
2013-9-12,90,82,76,80,77,72,94,83,70,29.81,29.67,5,1,9,0.05
2013-9-13,97,86,75,80,76,72,94,74,52,29.70,29.59,7,1,12,0.00
2013-9-14,97,87,76,80,76,71,92,71,44,29.76,29.61,8,2,13,0.00
2013-9-15,88,83,80,80,77,74,89,82,74,29.84,29.71,10,2,16,0.07
2013-9-16,88,83,78,80,77,73,92,81,68,29.83,29.74,10,3,17,0.11
2013-9-17,87,82,76,80,76,74,95,85,73,29.81,29.70,10,3,19,0.39
2013-9-18,91,82,74,80,76,72,95,83,66,29.81,29.69,8,2,14,1.26
2013-9-19,92,82,75,80,75,72,94,81,62,29.79,29.71,12,3,16,0.01
2013-9-20,82,77,74,72,71,69,88,83,72,29.78,29.74,7,0,10,0.00
2013-9-21,76,76,76,72,72,72,86,86,86,29.75,29.75,0,0,3,0.00
2013-9-22,76,76,76,72,72,72,86,86,86,29.75,29.75,0,0,3,0.00
2013-9-23,76,76,76,72,72,72,86,86,86,29.75,29.75,0,0,3,0.00
2013-9-24,76,76,76,72,72,72,86,86,86,29.75,29.75,0,0,3,0.00
2013-9-25,92,80,76,80,74,72,90,82,62,30.06,29.75,10,1,14,0.01
2013-9-26,92,82,78,83,78,75,92,86,66,29.92,29.84,15,3,21,0.15
2013-9-27,93,83,75,78,74,70,94,77,50,29.98,29.87,10,3,16,0.00
2013-9-28,86,82,74,78,76,71,93,81,75,30.00,29.93,7,3,11,0.11
2013-9-29,86,86,86,78,78,78,75,75,75,30.00,30.00,4,4,8,0.00
2013-9-30,86,86,86,78,78,78,75,75,75,30.00,30.00,4,4,8,0.00
2013-10-1,91,86,81,78,76,72,77,72,58,30.08,30.00,9,4,17,0.36
2013-10-2,89,83,80,77,74,73,85,75,64,30.10,30.01,12,4,19,0.01
2013-10-3,92,84,77,78,75,72,88,74,61,30.11,30.00,10,3,15,0.00
2013-10-4,92,84,77,75,73,70,86,70,53,30.11,30.03,11,2,16,0.00
2013-10-5,94,83,72,76,72,68,92,71,50,30.08,29.98,9,2,14,0.00
2013-10-6,95,85,76,78,72,66,91,69,41,30.02,29.91,8,2,13,0.00
2013-10-7,93,82,74,77,73,70,92,77,53,29.95,29.85,14,2,26,0.12
2013-10-8,94,83,77,80,76,71,93,78,56,29.99,29.90,9,2,14,0.02
2013-10-9,91,80,74,78,74,70,90,80,61,30.04,29.95,11,4,18,0.00
2013-10-10,91,82,73,76,72,68,93,74,55,30.06,29.98,13,4,19,0.00
2013-10-11,90,80,70,73,69,66,92,70,50,30.06,29.99,11,3,16,0.00
2013-10-12,91,80,68,72,68,65,92,69,47,30.08,30.00,9,2,14,0.00
2013-10-13,89,80,72,72,68,63,90,67,45,30.10,30.01,12,3,17,0.00
2013-10-14,90,80,70,72,69,66,91,70,51,30.08,29.95,10,2,17,0.00
2013-10-15,91,80,72,74,70,68,92,73,53,30.01,29.91,11,3,17,0.00
2013-10-16,89,79,72,75,70,67,91,75,54,30.01,29.93,8,2,12,0.05
2013-10-17,91,81,70,76,72,68,93,74,54,30.02,29.93,8,2,12,0.00
2013-10-18,92,82,71,76,72,68,93,73,55,30.04,29.95,8,2,14,0.00
2013-10-19,93,84,75,76,74,71,90,71,53,30.02,29.92,8,2,14,0.00
2013-10-20,93,84,79,78,76,74,90,78,59,30.02,29.92,8,2,17,0.00
2013-10-21,94,85,77,80,76,74,93,77,57,30.06,29.95,9,2,15,0.00
2013-10-22,93,84,75,80,76,72,92,77,56,30.02,29.88,11,2,17,0.00
2013-10-23,93,82,-25,78,74,-31,92,76,54,30.01,29.86,53,3,53,0.02
2013-10-24,82,78,74,70,66,62,79,67,56,30.14,29.98,13,5,21,0.00
2013-10-25,86,78,70,68,64,62,81,63,48,30.20,30.11,14,6,26,0.00
2013-10-26,87,78,69,68,64,61,86,63,47,30.20,30.10,12,3,17,0.99
2013-10-27,86,76,67,67,63,61,81,65,48,30.14,30.07,9,2,17,0.00
2013-10-28,88,79,68,69,65,61,90,63,43,30.19,30.09,10,3,16,0.00
2013-10-29,78,78,78,65,65,65,65,65,65,30.19,30.19,2,2,8,0.00
2013-10-30,78,78,78,65,65,65,65,65,65,30.19,30.19,2,2,8,0.00
2013-10-31,78,78,78,65,65,65,65,65,65,30.19,30.19,2,2,8,0.00
2013-11-1,78,78,78,65,65,65,65,65,65,30.19,30.19,2,2,8,0.00
2013-11-2,78,78,78,65,65,65,65,65,65,30.19,30.19,2,2,8,0.00
2013-11-3,78,78,78,65,65,65,65,65,65,30.19,30.19,2,2,8,0.00
2013-11-4,78,78,78,65,65,65,65,65,65,30.19,30.19,2,2,8,0.00
2013-11-5,78,78,78,65,65,65,65,65,65,30.19,30.19,2,2,8,0.00
2013-11-6,78,78,78,65,65,65,65,65,65,30.19,30.19,2,2,8,0.00
2013-11-7,78,78,78,65,65,65,65,65,65,30.19,30.19,2,2,8,0.00
2013-11-8,78,78,78,65,65,65,65,65,65,30.19,30.19,2,2,8,0.00
2013-11-9,79,78,76,74,68,65,90,71,65,30.19,29.87,14,3,23,0.61
2013-11-10,85,80,78,74,71,68,84,74,65,29.98,29.90,10,5,20,0.00
2013-11-11,87,80,72,73,69,66,90,71,58,29.98,29.91,11,4,17,0.00
2013-11-12,88,79,70,72,69,66,92,71,54,29.94,29.83,9,3,14,0.00
2013-11-13,78,74,71,69,64,56,82,72,59,30.08,29.85,18,8,30,0.00
2013-11-14,79,73,70,63,58,54,68,59,51,30.10,30.00,16,7,25,0.00
2013-11-15,84,78,74,72,66,60,88,66,58,30.01,29.89,10,5,19,0.00
2013-11-16,86,79,74,74,70,66,91,73,60,29.96,29.88,10,4,17,0.05
2013-11-17,87,81,76,74,72,69,85,73,61,29.94,29.86,11,3,18,0.00
2013-11-18,89,79,72,76,72,69,93,79,58,29.90,29.78,5,1,9,0.00
2013-11-19,89,78,73,75,72,70,92,82,57,29.81,29.71,11,2,17,0.00
2013-11-20,87,78,71,76,73,69,96,84,64,29.92,29.79,6,1,9,0.00
2013-11-21,84,77,72,77,73,70,100,90,74,30.00,29.91,11,3,18,1.82
2013-11-22,85,79,74,74,72,70,96,79,66,30.01,29.92,14,6,23,0.02
2013-11-23,86,79,74,74,72,68,89,78,64,29.94,29.83,11,4,16,0.00
2013-11-24,85,75,68,72,68,65,97,81,57,30.01,29.85,14,5,24,0.28
2013-11-25,78,74,72,71,66,61,94,76,67,30.07,29.92,15,8,30,0.12
2013-11-26,86,78,72,76,74,70,95,86,73,29.92,29.70,14,6,23,0.07
2013-11-27,81,73,59,76,66,53,95,80,50,29.99,29.65,14,5,23,0.37
2013-11-28,74,64,49,61,56,46,92,75,62,30.10,29.99,12,7,23,0.00
2013-11-29,73,73,73,61,61,61,66,66,66,30.02,30.02,8,8,21,0.00
2013-11-30,73,73,73,61,61,61,66,66,66,30.02,30.02,8,8,21,0.00
2013-12-1,73,73,73,61,61,61,66,66,66,30.02,30.02,8,8,21,0.00
2013-12-2,73,73,73,61,61,61,66,66,66,30.02,30.02,8,8,21,0.00
2013-12-3,73,73,73,61,61,61,66,66,66,30.02,30.02,8,8,21,0.00
2013-12-4,73,73,73,61,61,61,66,66,66,30.02,30.02,8,8,21,0.00
2013-12-5,86,78,73,74,68,61,90,71,62,30.02,29.79,10,5,21,4.12
2013-12-6,86,79,74,72,70,67,85,74,60,29.97,29.87,11,4,20,0.00
2013-12-7,87,78,68,73,69,17,93,75,54,30.01,29.92,97,2,98,0.00
2013-12-8,121,79,72,73,70,17,94,76,10,29.99,29.91,10,4,97,0.04
2013-12-9,86,80,76,72,69,66,84,70,54,29.99,29.89,9,3,97,0.09
2013-12-10,87,79,-22,75,72,-29,91,78,63,29.95,29.86,7,2,12,0.00
2013-12-11,88,78,70,78,71,64,95,82,63,29.99,29.90,5,1,11,0.00
2013-12-12,81,72,0,73,67,60,95,81,66,30.01,29.92,12,5,20,0.00
2013-12-13,81,74,70,71,64,59,90,71,60,29.98,29.87,13,6,24,0.01
2013-12-14,84,79,75,74,72,69,87,79,68,29.89,29.77,11,5,21,0.00
2013-12-15,86,79,72,76,73,69,94,83,69,29.85,29.71,10,4,18,0.00
2013-12-16,75,69,62,70,62,59,92,80,66,29.95,29.82,10,5,16,0.00
2013-12-17,79,68,60,66,60,57,94,78,57,29.97,29.88,12,4,17,0.00
2013-12-18,79,68,60,61,58,56,94,75,51,30.03,29.93,13,4,21,0.00
2013-12-19,82,71,59,64,60,57,94,71,51,30.03,29.93,10,3,17,0.00
2013-12-20,84,78,73,71,68,63,79,71,59,29.97,29.89,10,4,19,0.00
2013-12-21,86,80,76,74,72,70,87,79,64,29.93,29.84,11,5,22,0.00
2013-12-22,86,80,77,75,73,72,88,80,67,29.96,29.87,11,5,24,0.00
2013-12-23,86,79,72,76,73,69,93,81,68,29.97,29.89,11,4,20,0.00
2013-12-24,87,73,68,75,68,63,95,84,57,29.96,29.86,13,3,22,0.00
2013-12-25,79,74,72,68,67,65,86,78,68,29.96,29.88,14,6,24,0.00
2013-12-26,82,76,72,75,70,68,92,82,74,29.95,29.85,10,4,17,0.04
2013-12-27,84,77,73,73,71,69,94,81,69,29.98,29.87,11,4,19,0.00
2013-12-28,84,78,75,75,72,69,91,81,70,29.96,29.81,11,5,21,0.00
2013-12-29,84,78,75,76,74,73,95,87,77,29.83,29.71,13,4,22,0.00
2013-12-30,86,75,70,74,71,66,97,87,65,29.93,29.77,9,3,13,0.00
2013-12-31,84,74,68,70,66,62,92,76,61,30.01,29.89,15,6,24,0.00
2014-1-1,82,77,73,76,72,65,95,84,71,29.98,29.83,10,4,19,0.08
2014-1-2,87,78,71,73,70,66,94,77,51,29.83,29.65,13,3,22,0.00